Time;durP1;ratioP1;P1;durP2;ratioP2;P2;SDS_P1;SDS_P2;PMS_P1;PMS_P2;Temp;Humidity;BMP_temperature;BMP_pressure;BME280_temperature;BME280_humidity;BME280_pressure;Samples;Min_cycle;Max_cycle;Signal;HPM_P1;HPM_P2
2023/10/28 00:00:57;;;;;;;3.67;0.95;;;21.20;52.60;;;;;;4975643;28;20031;-64
2023/10/28 00:03:26;;;;;;;3.25;0.63;;;21.20;52.20;;;;;;4963189;28;20016;-64
2023/10/28 00:05:53;;;;;;;3.20;0.80;;;21.30;53.50;;;;;;4956237;28;20472;-66
2023/10/28 00:08:21;;;;;;;4.30;0.88;;;22.30;52.80;;;;;;4956192;29;20408;-66
2023/10/28 00:10:49;;;;;;;5.28;0.70;;;23.80;51.00;;;;;;4956055;29;20031;-66
2023/10/28 00:13:16;;;;;;;2.42;0.68;;;23.80;49.20;;;;;;4956247;28;20081;-66
2023/10/28 00:15:43;;;;;;;3.75;0.70;;;23.10;47.50;;;;;;4956286;29;20023;-66
2023/10/28 00:18:11;;;;;;;3.42;0.70;;;22.50;46.50;;;;;;4956107;29;20030;-66
2023/10/28 00:20:38;;;;;;;4.07;0.60;;;21.80;47.70;;;;;;4956453;28;20106;-66
2023/10/28 00:23:06;;;;;;;3.10;0.88;;;21.10;49.40;;;;;;4956290;29;20086;-66
2023/10/28 00:25:34;;;;;;;2.67;0.70;;;21.10;50.70;;;;;;4956244;29;20333;-66
2023/10/28 00:28:01;;;;;;;4.38;0.77;;;20.90;51.10;;;;;;4956043;29;20469;-65
2023/10/28 00:30:29;;;;;;;6.72;1.00;;;20.90;51.80;;;;;;4955963;29;20105;-66
2023/10/28 00:33:00;;;;;;;4.20;0.60;;;20.80;50.80;;;;;;4955281;29;20405;-66
2023/10/28 00:35:28;;;;;;;3.03;0.82;;;20.90;51.10;;;;;;4936665;29;20118;-66
2023/10/28 00:37:56;;;;;;;13.38;1.30;;;20.70;50.70;;;;;;4954501;28;20031;-66
2023/10/28 00:40:32;;;;;;;3.28;0.52;;;20.70;52.10;;;;;;4956008;29;20039;-66
2023/10/28 00:43:00;;;;;;;3.28;0.60;;;21.00;51.60;;;;;;4955853;29;20030;-66
2023/10/28 00:45:28;;;;;;;6.00;0.90;;;21.20;52.80;;;;;;4955623;29;20031;-67
2023/10/28 00:47:57;;;;;;;6.05;1.00;;;21.40;52.10;;;;;;4955854;29;20110;-66
2023/10/28 00:50:25;;;;;;;3.13;0.50;;;21.40;52.30;;;;;;4955711;29;20083;-65
2023/10/28 00:52:57;;;;;;;2.08;0.63;;;21.40;51.60;;;;;;4955756;28;20023;-67
2023/10/28 00:55:26;;;;;;;4.10;0.80;;;21.60;51.00;;;;;;4936346;29;20075;-65
2023/10/28 00:57:54;;;;;;;5.40;0.93;;;21.60;52.20;;;;;;4936240;29;20461;-66
2023/10/28 01:00:21;;;;;;;3.97;0.77;;;21.70;52.60;;;;;;4936584;29;20061;-66
2023/10/28 01:02:49;;;;;;;3.22;0.60;;;21.50;52.60;;;;;;4955408;29;20110;-66
2023/10/28 01:05:16;;;;;;;4.05;0.70;;;21.50;51.40;;;;;;4955308;29;20527;-66
2023/10/28 01:07:46;;;;;;;7.97;0.90;;;21.40;50.80;;;;;;4955354;29;20023;-66
2023/10/28 01:10:24;;;;;;;3.97;0.70;;;21.30;51.60;;;;;;4957699;28;20416;-66
2023/10/28 01:12:51;;;;;;;7.78;1.17;;;21.30;52.10;;;;;;4974357;28;20066;-66
2023/10/28 01:15:19;;;;;;;7.38;0.98;;;21.40;52.00;;;;;;4974558;28;20019;-66
2023/10/28 01:17:47;;;;;;;5.38;0.80;;;21.40;51.10;;;;;;4974008;28;20027;-66
2023/10/28 01:20:15;;;;;;;6.25;0.68;;;21.10;51.70;;;;;;4974383;28;20022;-66
2023/10/28 01:22:42;;;;;;;1.55;0.63;;;21.00;51.60;;;;;;4974268;28;20332;-66
2023/10/28 01:25:10;;;;;;;6.75;0.93;;;21.00;51.60;;;;;;4973931;28;20019;-66
2023/10/28 01:27:38;;;;;;;2.50;0.73;;;20.90;52.00;;;;;;4971790;28;20034;-66
2023/10/28 01:30:13;;;;;;;2.60;0.70;;;20.80;52.40;;;;;;4974281;28;20061;-65
2023/10/28 01:32:47;;;;;;;4.97;0.90;;;20.50;52.70;;;;;;4959858;28;20559;-66
2023/10/28 01:35:15;;;;;;;3.92;0.77;;;20.60;53.00;;;;;;4954659;29;20055;-65
2023/10/28 01:37:42;;;;;;;3.25;0.93;;;20.50;52.90;;;;;;4937184;29;20416;-65
2023/10/28 01:40:13;;;;;;;5.50;0.90;;;20.50;53.10;;;;;;4954704;29;20023;-65
2023/10/28 01:42:41;;;;;;;4.68;1.00;;;20.30;53.10;;;;;;4954732;29;20015;-66
2023/10/28 01:45:10;;;;;;;2.85;0.82;;;20.30;53.40;;;;;;4965196;28;20023;-66
2023/10/28 01:47:39;;;;;;;4.65;1.10;;;20.30;53.70;;;;;;4973562;28;20413;-65
2023/10/28 01:50:07;;;;;;;8.95;0.85;;;20.30;53.10;;;;;;4973573;28;20054;-66
2023/10/28 01:52:35;;;;;;;5.25;0.80;;;20.20;53.20;;;;;;4973406;28;20050;-65
2023/10/28 01:55:02;;;;;;;3.58;1.02;;;20.30;52.80;;;;;;4973629;28;20518;-65
2023/10/28 01:57:30;;;;;;;7.85;1.25;;;20.40;53.50;;;;;;4973441;28;20106;-67
2023/10/28 01:59:58;;;;;;;4.63;0.88;;;20.50;53.70;;;;;;4973574;28;20070;-66
2023/10/28 02:02:25;;;;;;;4.78;0.90;;;20.80;53.40;;;;;;4960907;28;20027;-66
2023/10/28 02:04:52;;;;;;;5.53;1.00;;;21.20;52.40;;;;;;4954141;29;20062;-66
2023/10/28 02:07:20;;;;;;;4.30;1.20;;;21.30;51.70;;;;;;4954492;29;20023;-66
2023/10/28 02:09:48;;;;;;;7.60;0.80;;;21.40;52.00;;;;;;4954177;29;20046;-65
2023/10/28 02:12:15;;;;;;;4.15;0.90;;;21.60;51.20;;;;;;4954247;29;20109;-66
2023/10/28 02:14:43;;;;;;;2.25;0.80;;;21.70;51.80;;;;;;4954031;29;20022;-65
2023/10/28 02:17:11;;;;;;;4.25;0.80;;;22.00;51.60;;;;;;4953721;29;20421;-65
2023/10/28 02:19:39;;;;;;;3.25;0.70;;;22.40;50.40;;;;;;4954088;28;20412;-65
2023/10/28 02:22:06;;;;;;;3.28;0.80;;;22.80;50.70;;;;;;4953957;28;20479;-65
2023/10/28 02:24:33;;;;;;;8.07;1.40;;;23.20;50.20;;;;;;4954059;29;20023;-65
2023/10/28 02:27:00;;;;;;;5.15;1.15;;;23.50;49.40;;;;;;4954081;29;20027;-65
2023/10/28 02:29:29;;;;;;;5.50;1.10;;;23.80;49.40;;;;;;4947155;28;20079;-65
2023/10/28 02:31:56;;;;;;;6.47;1.13;;;23.80;49.30;;;;;;4934355;29;20413;-67
2023/10/28 02:34:23;;;;;;;6.20;1.02;;;24.00;49.90;;;;;;4934389;29;20071;-67
2023/10/28 02:36:51;;;;;;;4.47;0.90;;;24.20;48.10;;;;;;4966799;28;20472;-67
2023/10/28 02:39:18;;;;;;;4.95;0.93;;;24.70;49.00;;;;;;4971581;28;20037;-65
2023/10/28 02:41:45;;;;;;;8.80;1.40;;;24.50;46.50;;;;;;4972973;28;20023;-65
2023/10/28 02:44:13;;;;;;;3.40;0.90;;;24.10;47.40;;;;;;4972694;28;20040;-65
2023/10/28 02:46:40;;;;;;;6.10;1.10;;;23.60;47.90;;;;;;4973013;28;20034;-66
2023/10/28 02:49:07;;;;;;;4.18;0.90;;;23.40;46.60;;;;;;4973024;28;20038;-65
2023/10/28 02:51:34;;;;;;;4.60;1.20;;;23.00;47.90;;;;;;4972554;28;20532;-64
2023/10/28 02:54:02;;;;;;;6.55;1.00;;;22.90;47.80;;;;;;4971932;28;20018;-64
2023/10/28 02:56:30;;;;;;;6.97;1.10;;;22.70;48.00;;;;;;4973162;28;20074;-65
2023/10/28 02:58:59;;;;;;;2.53;0.90;;;22.70;49.40;;;;;;4972594;28;20043;-67
2023/10/28 03:01:26;;;;;;;5.68;1.02;;;23.00;49.60;;;;;;4963497;28;20197;-66
2023/10/28 03:03:53;;;;;;;3.03;0.90;;;22.80;47.70;;;;;;4953469;29;20106;-66
2023/10/28 03:06:20;;;;;;;6.28;1.10;;;23.00;48.80;;;;;;4953657;28;20026;-66
2023/10/28 03:08:48;;;;;;;6.03;1.10;;;23.80;48.70;;;;;;4953560;28;20441;-66
2023/10/28 03:11:15;;;;;;;3.83;0.65;;;24.70;47.20;;;;;;4953458;28;20027;-66
2023/10/28 03:13:42;;;;;;;4.60;1.00;;;25.10;46.00;;;;;;4953246;29;20477;-67
2023/10/28 03:16:10;;;;;;;2.67;0.70;;;24.40;46.20;;;;;;4953555;29;20023;-65
2023/10/28 03:18:37;;;;;;;7.25;1.00;;;24.50;47.60;;;;;;4953451;29;20046;-65
2023/10/28 03:21:06;;;;;;;4.10;0.80;;;24.90;46.70;;;;;;4953420;29;20038;-66
2023/10/28 03:23:33;;;;;;;4.60;1.02;;;25.10;47.30;;;;;;4953450;29;20396;-66
2023/10/28 03:26:01;;;;;;;6.72;1.13;;;25.20;44.60;;;;;;4953670;28;20432;-66
2023/10/28 03:28:29;;;;;;;5.47;1.02;;;25.30;47.00;;;;;;4953475;29;20071;-66
2023/10/28 03:30:56;;;;;;;5.57;0.88;;;25.50;45.70;;;;;;4953486;29;20023;-66
2023/10/28 03:33:23;;;;;;;6.75;1.08;;;25.80;46.60;;;;;;4953053;29;20393;-66
2023/10/28 03:35:51;;;;;;;6.32;0.70;;;26.00;46.80;;;;;;4953386;29;20046;-66
2023/10/28 03:38:22;;;;;;;4.22;1.02;;;26.40;45.50;;;;;;4953224;29;20023;-66
2023/10/28 03:40:49;;;;;;;4.78;1.02;;;26.00;42.70;;;;;;4953539;28;20414;-66
2023/10/28 03:43:16;;;;;;;6.25;1.08;;;25.10;43.00;;;;;;4957327;28;20058;-66
2023/10/28 03:45:44;;;;;;;5.88;1.00;;;25.30;45.70;;;;;;4957148;29;20028;-67
2023/10/28 03:48:11;;;;;;;8.40;0.88;;;25.70;46.10;;;;;;4956506;29;20071;-67
2023/10/28 03:50:38;;;;;;;4.20;0.80;;;25.60;45.70;;;;;;4956596;29;20031;-66
2023/10/28 03:53:05;;;;;;;3.15;1.10;;;25.90;44.50;;;;;;4956395;29;20373;-64
2023/10/28 03:55:33;;;;;;;6.43;0.93;;;25.40;44.90;;;;;;4956649;29;20125;-65
2023/10/28 03:58:02;;;;;;;6.68;1.50;;;25.10;45.70;;;;;;4956498;28;20027;-66
2023/10/28 04:00:29;;;;;;;8.90;1.10;;;25.40;46.50;;;;;;4946488;28;20127;-67
2023/10/28 04:02:56;;;;;;;3.17;0.90;;;25.90;45.80;;;;;;4956347;28;20023;-65
2023/10/28 04:05:24;;;;;;;3.38;0.80;;;26.50;44.80;;;;;;4956486;28;20461;-65
2023/10/28 04:07:51;;;;;;;6.00;0.90;;;26.10;43.70;;;;;;4956082;28;20027;-67
2023/10/28 04:10:18;;;;;;;4.03;0.85;;;25.90;44.70;;;;;;4956400;28;20118;-68
2023/10/28 04:12:46;;;;;;;4.75;0.80;;;25.50;44.60;;;;;;4956413;28;20020;-67
2023/10/28 04:15:16;;;;;;;8.20;1.10;;;25.40;45.60;;;;;;4956191;28;20023;-67
2023/10/28 04:17:43;;;;;;;5.30;0.88;;;24.90;45.10;;;;;;4956510;28;20071;-66
2023/10/28 04:20:11;;;;;;;2.60;0.70;;;24.00;45.80;;;;;;4955921;29;20027;-67
2023/10/28 04:22:38;;;;;;;5.22;0.88;;;23.80;47.80;;;;;;4955927;28;20019;-66
2023/10/28 04:25:06;;;;;;;3.70;0.80;;;23.80;46.90;;;;;;4956105;29;20030;-66
2023/10/28 04:27:34;;;;;;;3.85;0.70;;;23.50;47.10;;;;;;4956049;29;20038;-66
2023/10/28 04:30:04;;;;;;;3.95;0.80;;;23.20;48.20;;;;;;4955800;29;20031;-66
2023/10/28 04:32:32;;;;;;;4.82;1.00;;;23.00;48.90;;;;;;4955667;28;20159;-66
2023/10/28 04:34:59;;;;;;;3.33;0.80;;;22.80;48.90;;;;;;4964365;28;20101;-66
2023/10/28 04:37:27;;;;;;;3.42;0.60;;;22.70;48.20;;;;;;4974885;28;20050;-66
2023/10/28 04:39:54;;;;;;;7.22;1.10;;;22.60;48.40;;;;;;4974776;28;20452;-65
2023/10/28 04:42:21;;;;;;;2.72;0.73;;;22.60;48.20;;;;;;4974842;28;20093;-65
2023/10/28 04:44:49;;;;;;;5.55;0.93;;;22.70;48.90;;;;;;4974949;28;20027;-65
2023/10/28 04:47:16;;;;;;;5.50;0.90;;;22.50;48.90;;;;;;4974484;28;20027;-65
2023/10/28 04:49:43;;;;;;;6.38;1.20;;;22.40;49.40;;;;;;4975150;28;20038;-65
2023/10/28 04:52:11;;;;;;;4.82;0.70;;;22.30;49.70;;;;;;4973248;28;20018;-65
2023/10/28 04:54:38;;;;;;;3.78;0.68;;;22.90;50.50;;;;;;4974329;28;20081;-65
2023/10/28 04:57:06;;;;;;;5.03;1.25;;;23.50;49.50;;;;;;4969007;28;20043;-65
2023/10/28 04:59:33;;;;;;;5.82;0.80;;;23.80;46.60;;;;;;4955148;29;20028;-67
2023/10/28 05:02:00;;;;;;;2.78;0.63;;;23.90;45.10;;;;;;4955121;29;20019;-67
2023/10/28 05:04:28;;;;;;;3.25;0.65;;;23.70;45.70;;;;;;4955262;28;20031;-67
2023/10/28 05:06:56;;;;;;;3.58;0.82;;;23.90;47.50;;;;;;4955225;28;20149;-66
2023/10/28 05:09:23;;;;;;;4.40;0.93;;;24.10;47.90;;;;;;4955622;28;20102;-67
2023/10/28 05:11:54;;;;;;;3.50;0.80;;;24.20;48.90;;;;;;4955090;28;20452;-66
2023/10/28 05:14:23;;;;;;;4.95;1.17;;;24.00;46.80;;;;;;4954875;29;20019;-66
2023/10/28 05:16:54;;;;;;;7.00;0.75;;;24.00;46.50;;;;;;4955008;29;20102;-66
2023/10/28 05:19:22;;;;;;;2.80;0.80;;;23.70;48.00;;;;;;4953625;29;20423;-67
2023/10/28 05:21:50;;;;;;;8.10;1.10;;;23.70;51.70;;;;;;4954912;29;20081;-67
2023/10/28 05:24:17;;;;;;;8.68;0.88;;;23.90;51.20;;;;;;4954770;29;20027;-65
2023/10/28 05:26:44;;;;;;;5.47;0.80;;;23.60;51.30;;;;;;4969554;28;20027;-66
2023/10/28 05:29:12;;;;;;;7.90;0.98;;;23.20;51.90;;;;;;4973605;28;20372;-65
2023/10/28 05:31:39;;;;;;;1.75;0.60;;;23.10;52.20;;;;;;4973983;28;20034;-65
2023/10/28 05:34:06;;;;;;;5.78;1.25;;;22.80;52.50;;;;;;4973886;28;20045;-65
2023/10/28 05:36:34;;;;;;;6.88;0.80;;;22.70;52.20;;;;;;4974016;28;20022;-65
2023/10/28 05:39:01;;;;;;;3.17;0.90;;;22.60;54.30;;;;;;4973797;28;20035;-65
2023/10/28 05:41:28;;;;;;;5.88;1.33;;;22.80;51.40;;;;;;4973855;28;20115;-67
2023/10/28 05:43:56;;;;;;;7.05;0.70;;;22.80;52.00;;;;;;4973121;28;20066;-67
2023/10/28 05:46:23;;;;;;;6.88;0.75;;;22.70;52.80;;;;;;4973876;28;20027;-65
2023/10/28 05:48:51;;;;;;;7.72;0.77;;;22.50;52.40;;;;;;4973763;28;20049;-67
2023/10/28 05:51:18;;;;;;;4.82;0.80;;;22.70;52.90;;;;;;4973649;28;20034;-65
2023/10/28 05:53:46;;;;;;;6.20;0.70;;;22.40;52.10;;;;;;4973705;28;20514;-67
2023/10/28 05:56:14;;;;;;;3.65;1.20;;;22.50;53.60;;;;;;4956111;28;20031;-67
2023/10/28 05:58:41;;;;;;;3.53;0.80;;;22.60;51.60;;;;;;4954230;29;20050;-66
2023/10/28 06:01:09;;;;;;;5.35;0.90;;;22.60;51.90;;;;;;4954732;28;20019;-67
2023/10/28 06:03:38;;;;;;;3.35;1.00;;;22.70;51.80;;;;;;4954195;28;20380;-66
2023/10/28 06:06:05;;;;;;;8.65;0.77;;;22.60;51.00;;;;;;4954159;28;20019;-67
2023/10/28 06:08:33;;;;;;;3.55;0.80;;;22.70;52.20;;;;;;4954040;28;20519;-66
2023/10/28 06:11:00;;;;;;;4.65;0.98;;;22.80;51.80;;;;;;4954321;28;20059;-66
2023/10/28 06:13:28;;;;;;;2.90;0.70;;;22.70;51.80;;;;;;4953746;28;20695;-67
2023/10/28 06:15:56;;;;;;;4.10;0.70;;;22.60;51.50;;;;;;4954635;28;20015;-67
2023/10/28 06:18:23;;;;;;;5.50;1.30;;;22.40;51.70;;;;;;4954187;29;20114;-67
2023/10/28 06:20:50;;;;;;;3.78;0.80;;;22.30;51.80;;;;;;4954000;29;20106;-66
2023/10/28 06:23:18;;;;;;;2.38;0.60;;;22.20;52.90;;;;;;4953842;29;20113;-66
2023/10/28 06:25:45;;;;;;;3.25;0.70;;;22.30;53.50;;;;;;4954195;29;20050;-66
2023/10/28 06:28:12;;;;;;;7.00;0.90;;;22.20;53.70;;;;;;4954351;29;20151;-67
2023/10/28 06:30:50;;;;;;;4.15;1.00;;;22.10;54.20;;;;;;4953960;29;20027;-66
2023/10/28 06:33:18;;;;;;;4.20;0.50;;;22.10;55.00;;;;;;4957367;28;20066;-66
2023/10/28 06:35:46;;;;;;;6.63;0.95;;;22.00;55.00;;;;;;4973069;28;20015;-66
2023/10/28 06:38:13;;;;;;;3.88;0.75;;;21.80;56.10;;;;;;4973444;28;20039;-66
2023/10/28 06:40:41;;;;;;;3.45;0.70;;;21.70;56.20;;;;;;4973194;28;20019;-65
2023/10/28 06:43:08;;;;;;;3.47;0.60;;;21.40;57.90;;;;;;4973104;28;20031;-66
2023/10/28 06:45:35;;;;;;;3.38;0.65;;;21.30;58.30;;;;;;4973071;28;20025;-65
2023/10/28 06:48:03;;;;;;;2.92;0.60;;;21.10;58.40;;;;;;4972933;28;20031;-64
2023/10/28 06:50:31;;;;;;;4.30;0.70;;;20.90;59.10;;;;;;4972120;28;20026;-65
2023/10/28 06:52:59;;;;;;;4.40;0.80;;;20.90;59.10;;;;;;4972971;28;20110;-65
2023/10/28 06:55:29;;;;;;;4.50;0.68;;;20.90;59.80;;;;;;4973081;28;20023;-66
2023/10/28 06:58:00;;;;;;;7.70;0.80;;;20.90;60.00;;;;;;4972859;28;20054;-65
2023/10/28 07:00:28;;;;;;;2.05;0.50;;;20.80;60.00;;;;;;4971242;28;20022;-67
2023/10/28 07:02:56;;;;;;;18.67;10.93;;;20.50;60.60;;;;;;4953436;29;20114;-65
2023/10/28 07:05:26;;;;;;;17.10;11.18;;;20.40;61.30;;;;;;4953638;29;20043;-65
2023/10/28 07:07:57;;;;;;;4.38;2.08;;;20.40;61.60;;;;;;4961469;28;20499;-65
2023/10/28 07:10:25;;;;;;;4.40;0.73;;;20.40;61.90;;;;;;4972641;28;20370;-66
2023/10/28 07:12:55;;;;;;;3.75;1.52;;;20.50;61.80;;;;;;4972529;28;20051;-66
2023/10/28 07:15:23;;;;;;;7.22;1.65;;;20.50;62.10;;;;;;4972563;28;20019;-66
2023/10/28 07:17:51;;;;;;;9.10;1.83;;;20.40;62.20;;;;;;4976380;28;20038;-66
2023/10/28 07:20:19;;;;;;;1.80;0.60;;;20.40;62.30;;;;;;4976511;28;20085;-66
2023/10/28 07:22:47;;;;;;;3.65;0.80;;;20.30;62.50;;;;;;4976558;28;20110;-66
2023/10/28 07:25:14;;;;;;;5.93;1.08;;;20.40;62.30;;;;;;4975463;28;20027;-66
2023/10/28 07:27:42;;;;;;;3.10;0.77;;;20.50;62.50;;;;;;4976421;28;20053;-66
2023/10/28 07:30:10;;;;;;;4.25;1.00;;;20.30;62.90;;;;;;4976407;28;20071;-66
2023/10/28 07:32:38;;;;;;;3.50;1.30;;;20.10;63.40;;;;;;4976174;28;20043;-66
2023/10/28 07:35:06;;;;;;;69.03;43.08;;;19.90;63.80;;;;;;4976314;28;20026;-66
2023/10/28 07:37:34;;;;;;;49.17;34.47;;;19.80;64.20;;;;;;4976164;28;20073;-67
2023/10/28 07:40:03;;;;;;;7.00;3.65;;;19.70;64.50;;;;;;4976187;28;20029;-67
2023/10/28 07:42:31;;;;;;;58.22;36.85;;;19.70;64.50;;;;;;4975292;28;20479;-67
2023/10/28 07:44:58;;;;;;;37.58;22.75;;;19.50;64.80;;;;;;4976273;28;20030;-67
2023/10/28 07:47:26;;;;;;;44.67;30.40;;;19.40;65.00;;;;;;4976235;28;20376;-67
2023/10/28 07:49:53;;;;;;;4.05;1.10;;;19.30;65.30;;;;;;4976267;28;20026;-67
2023/10/28 07:52:20;;;;;;;6.95;2.70;;;19.20;65.60;;;;;;4975914;28;20101;-66
2023/10/28 07:54:48;;;;;;;7.22;3.22;;;19.10;66.10;;;;;;4975864;28;20476;-66
2023/10/28 07:57:15;;;;;;;199.98;119.93;;;19.10;66.20;;;;;;4975911;28;20343;-65
2023/10/28 07:59:42;;;;;;;47.30;26.83;;;19.00;66.00;;;;;;4960562;28;20055;-66
2023/10/28 08:02:11;;;;;;;106.70;62.03;;;19.00;66.10;;;;;;4971664;28;20022;-65
2023/10/28 08:04:38;;;;;;;117.80;67.20;;;18.80;66.80;;;;;;4975709;28;20037;-66
2023/10/28 08:07:07;;;;;;;79.68;48.58;;;18.80;66.30;;;;;;4958633;28;20023;-67
2023/10/28 08:09:35;;;;;;;64.95;43.22;;;18.70;66.60;;;;;;4958577;28;20018;-66
2023/10/28 08:12:04;;;;;;;16.92;9.68;;;18.50;66.80;;;;;;4975979;28;20023;-68
2023/10/28 08:14:34;;;;;;;35.28;21.40;;;18.50;66.90;;;;;;4958306;28;20162;-66
2023/10/28 08:17:01;;;;;;;161.13;104.75;;;18.40;67.20;;;;;;4958225;28;20038;-66
2023/10/28 08:19:29;;;;;;;72.18;45.60;;;18.30;67.70;;;;;;4956145;28;20058;-65
2023/10/28 08:21:57;;;;;;;23.08;13.98;;;18.30;67.60;;;;;;4955974;29;20486;-65
2023/10/28 08:24:24;;;;;;;6.78;2.05;;;18.30;67.60;;;;;;4956239;29;20023;-66
2023/10/28 08:26:51;;;;;;;6.30;0.70;;;18.20;67.80;;;;;;4955671;28;20023;-66
2023/10/28 08:29:19;;;;;;;6.68;0.93;;;18.20;68.00;;;;;;4955175;28;20023;-66
2023/10/28 08:31:46;;;;;;;2.72;0.60;;;18.10;68.60;;;;;;4956433;28;20045;-66
2023/10/28 08:34:13;;;;;;;5.45;1.27;;;18.00;69.10;;;;;;4974485;28;20098;-65
2023/10/28 08:36:44;;;;;;;3.17;0.90;;;17.90;69.60;;;;;;4975044;28;20022;-66
2023/10/28 08:39:13;;;;;;;2.45;0.80;;;17.80;69.90;;;;;;4975169;28;20341;-65
2023/10/28 08:41:42;;;;;;;4.53;0.85;;;17.90;70.20;;;;;;4975076;28;20145;-65
2023/10/28 08:44:12;;;;;;;5.90;1.67;;;17.80;70.40;;;;;;4974985;28;20045;-65
2023/10/28 08:46:39;;;;;;;3.80;0.80;;;17.80;70.50;;;;;;4975197;28;20082;-66
2023/10/28 08:49:09;;;;;;;9.63;1.55;;;17.80;70.80;;;;;;4974133;28;20054;-65
2023/10/28 08:51:40;;;;;;;5.75;0.80;;;17.70;70.90;;;;;;4975217;28;20027;-65
2023/10/28 08:54:10;;;;;;;3.72;0.85;;;17.70;71.50;;;;;;4975190;28;20019;-65
2023/10/28 08:56:43;;;;;;;5.68;0.85;;;17.60;71.70;;;;;;4965891;28;20345;-66
2023/10/28 08:59:11;;;;;;;4.53;0.50;;;17.60;71.80;;;;;;4955779;29;20035;-65
2023/10/28 09:01:40;;;;;;;7.03;0.88;;;17.60;71.90;;;;;;4966360;28;20085;-66
2023/10/28 09:04:08;;;;;;;3.40;0.60;;;17.40;72.30;;;;;;4974928;28;20023;-66
2023/10/28 09:06:35;;;;;;;3.60;0.60;;;17.40;72.90;;;;;;4968801;28;20023;-66
2023/10/28 09:09:06;;;;;;;2.92;0.80;;;17.50;72.90;;;;;;4955460;29;20029;-65
2023/10/28 09:11:33;;;;;;;2.72;0.73;;;17.40;72.80;;;;;;4955369;29;20363;-64
2023/10/28 09:14:01;;;;;;;6.45;0.60;;;17.40;73.30;;;;;;4955048;28;20031;-65
2023/10/28 09:16:28;;;;;;;4.88;0.98;;;17.30;73.50;;;;;;4955358;29;20019;-66
2023/10/28 09:18:55;;;;;;;8.63;1.33;;;17.30;73.60;;;;;;4955041;28;20552;-66
2023/10/28 09:21:23;;;;;;;3.92;0.80;;;17.20;74.10;;;;;;4955238;29;20034;-66
2023/10/28 09:23:51;;;;;;;4.32;0.88;;;17.10;74.70;;;;;;4963024;28;20037;-66
2023/10/28 09:26:18;;;;;;;6.75;1.40;;;17.20;74.60;;;;;;4974367;28;20030;-66
2023/10/28 09:28:46;;;;;;;3.70;1.10;;;17.10;75.30;;;;;;4974259;28;20054;-66
2023/10/28 09:31:24;;;;;;;3.75;0.82;;;17.20;75.40;;;;;;4974365;28;20097;-66
2023/10/28 09:33:52;;;;;;;5.63;0.75;;;17.10;75.60;;;;;;4974218;28;20046;-65
2023/10/28 09:36:20;;;;;;;7.30;0.88;;;17.00;76.30;;;;;;4974114;28;20443;-66
2023/10/28 09:38:48;;;;;;;4.20;0.75;;;17.00;76.90;;;;;;4974145;28;20054;-66
2023/10/28 09:41:18;;;;;;;4.85;0.63;;;16.90;77.00;;;;;;4973020;28;20093;-66
2023/10/28 09:43:45;;;;;;;6.05;1.20;;;16.90;77.00;;;;;;4974292;28;20467;-66
2023/10/28 09:46:19;;;;;;;4.43;1.50;;;16.90;77.50;;;;;;4974079;28;20536;-66
2023/10/28 09:48:51;;;;;;;4.25;1.08;;;16.80;77.70;;;;;;4973908;28;20027;-66
2023/10/28 09:51:22;;;;;;;3.95;0.80;;;16.90;77.60;;;;;;4973875;28;20057;-66
2023/10/28 09:53:59;;;;;;;3.72;1.13;;;16.80;78.10;;;;;;4971286;28;20031;-66
2023/10/28 09:56:34;;;;;;;5.30;0.85;;;16.80;78.50;;;;;;4954692;29;20015;-66
2023/10/28 09:59:33;;;;;;;8.15;1.02;;;16.60;79.10;;;;;;4954903;28;20045;-66
2023/10/28 10:02:23;;;;;;;6.28;1.00;;;16.50;79.50;;;;;;4965286;28;20030;-66
2023/10/28 10:05:33;;;;;;;6.05;0.82;;;16.40;79.70;;;;;;4965693;28;20031;-66
2023/10/28 10:08:02;;;;;;;6.88;0.88;;;16.20;81.00;;;;;;4966495;28;20485;-66
2023/10/28 10:10:30;;;;;;;8.65;0.85;;;16.30;81.60;;;;;;4973918;28;20118;-65
2023/10/28 10:13:04;;;;;;;4.65;1.10;;;16.20;82.10;;;;;;4973588;28;20033;-65
2023/10/28 10:15:36;;;;;;;5.55;0.90;;;16.30;82.20;;;;;;4955087;28;20357;-66
2023/10/28 10:18:21;;;;;;;4.07;1.00;;;16.20;82.20;;;;;;4973396;28;20034;-66
2023/10/28 10:20:49;;;;;;;4.22;0.65;;;16.10;82.70;;;;;;4973286;28;20033;-65
2023/10/28 10:23:16;;;;;;;3.47;1.00;;;16.00;83.00;;;;;;4973421;28;20035;-65
2023/10/28 10:25:45;;;;;;;3.80;0.90;;;15.90;83.60;;;;;;4973397;28;20077;-66
2023/10/28 10:28:15;;;;;;;8.27;1.00;;;15.80;83.80;;;;;;4973355;28;20471;-66
2023/10/28 10:30:43;;;;;;;5.40;1.13;;;15.80;84.30;;;;;;4973283;28;20019;-65
2023/10/28 10:33:11;;;;;;;6.78;0.93;;;15.80;84.30;;;;;;4972383;28;20045;-65
2023/10/28 10:35:39;;;;;;;5.20;0.70;;;15.90;84.00;;;;;;4973454;28;20023;-65
2023/10/28 10:38:11;;;;;;;3.05;1.00;;;16.00;83.40;;;;;;4973217;28;20122;-65
2023/10/28 10:40:52;;;;;;;5.35;1.45;;;15.80;83.70;;;;;;4973211;28;20495;-65
2023/10/28 10:43:21;;;;;;;4.63;1.17;;;15.80;84.50;;;;;;4973085;28;20023;-66
2023/10/28 10:45:49;;;;;;;3.30;1.00;;;15.80;84.20;;;;;;4973007;28;20026;-66
2023/10/28 10:48:17;;;;;;;4.97;1.13;;;15.80;84.60;;;;;;4972318;28;20027;-65
2023/10/28 10:50:46;;;;;;;3.80;0.90;;;15.60;84.70;;;;;;4973416;28;20023;-65
2023/10/28 10:53:13;;;;;;;3.25;0.88;;;15.60;85.30;;;;;;4962734;28;20067;-65
2023/10/28 10:55:41;;;;;;;6.18;1.05;;;15.40;85.40;;;;;;4957787;29;20016;-66
2023/10/28 10:58:08;;;;;;;4.90;1.23;;;15.40;85.60;;;;;;4957464;29;20453;-66
2023/10/28 11:00:37;;;;;;;1.95;0.63;;;15.40;85.80;;;;;;4960581;28;20439;-65
2023/10/28 11:03:07;;;;;;;3.40;0.77;;;15.50;86.50;;;;;;4977050;28;20023;-66
2023/10/28 11:05:36;;;;;;;5.72;1.38;;;15.50;86.60;;;;;;4970886;28;20127;-65
2023/10/28 11:08:04;;;;;;;2.63;0.98;;;15.50;86.60;;;;;;4957655;28;20417;-65
2023/10/28 11:10:31;;;;;;;5.57;1.20;;;15.40;87.00;;;;;;4957417;29;20061;-65
2023/10/28 11:13:00;;;;;;;6.07;1.30;;;15.30;86.70;;;;;;4957528;29;20023;-65
2023/10/28 11:15:30;;;;;;;3.15;0.93;;;15.30;87.10;;;;;;4957292;29;20464;-65
2023/10/28 11:17:58;;;;;;;3.15;0.90;;;15.30;87.50;;;;;;4957634;28;20443;-65
2023/10/28 11:20:26;;;;;;;5.72;1.00;;;15.20;87.30;;;;;;4957343;29;20023;-65
2023/10/28 11:22:53;;;;;;;7.72;1.25;;;15.10;87.30;;;;;;4957830;28;20027;-65
2023/10/28 11:25:21;;;;;;;5.88;1.00;;;15.10;87.80;;;;;;4956999;29;20026;-66
2023/10/28 11:27:51;;;;;;;7.03;1.30;;;15.00;88.80;;;;;;4957333;29;20082;-65
2023/10/28 11:30:20;;;;;;;3.55;1.25;;;15.00;89.00;;;;;;4956119;29;20357;-65
2023/10/28 11:32:49;;;;;;;3.70;1.20;;;15.00;89.50;;;;;;4957018;29;20058;-66
2023/10/28 11:35:17;;;;;;;5.45;1.83;;;15.10;89.70;;;;;;4957013;29;20083;-65
2023/10/28 11:37:44;;;;;;;5.40;1.60;;;15.00;89.50;;;;;;4957129;28;20038;-65
2023/10/28 11:40:12;;;;;;;6.05;1.50;;;15.00;89.80;;;;;;4968061;28;20015;-65
2023/10/28 11:42:39;;;;;;;4.90;1.20;;;14.90;89.50;;;;;;4976224;28;20029;-65
2023/10/28 11:45:07;;;;;;;5.85;1.10;;;14.90;89.80;;;;;;4976331;28;20444;-66
2023/10/28 11:47:35;;;;;;;6.22;1.30;;;14.80;90.20;;;;;;4976142;28;20027;-65
2023/10/28 11:50:02;;;;;;;4.07;1.33;;;14.60;90.40;;;;;;4963237;28;20113;-65
2023/10/28 11:52:30;;;;;;;5.60;1.38;;;14.60;90.40;;;;;;4956530;29;20031;-65
2023/10/28 11:54:59;;;;;;;5.68;1.77;;;14.50;90.70;;;;;;4956825;29;20026;-65
2023/10/28 11:57:26;;;;;;;4.97;1.60;;;14.40;90.70;;;;;;4957151;28;20027;-65
2023/10/28 11:59:53;;;;;;;4.38;1.50;;;14.40;91.00;;;;;;4956614;29;20464;-65
2023/10/28 12:02:22;;;;;;;6.78;2.10;;;14.20;91.00;;;;;;4972833;28;20418;-65
2023/10/28 12:04:49;;;;;;;4.60;1.80;;;14.20;91.20;;;;;;4975678;28;20118;-66
2023/10/28 12:07:16;;;;;;;3.47;1.10;;;14.10;91.40;;;;;;4975903;28;20031;-65
2023/10/28 12:09:44;;;;;;;2.85;1.00;;;14.50;91.00;;;;;;4975806;28;20051;-65
2023/10/28 12:12:11;;;;;;;5.18;1.02;;;14.80;90.30;;;;;;4975658;28;20099;-65
2023/10/28 12:14:38;;;;;;;4.05;1.25;;;14.90;90.10;;;;;;4960828;28;20098;-65
2023/10/28 12:17:06;;;;;;;3.08;1.30;;;14.90;90.00;;;;;;4956164;28;20421;-65
2023/10/28 12:19:33;;;;;;;3.67;1.30;;;14.70;90.00;;;;;;4956125;29;20476;-65
2023/10/28 12:22:01;;;;;;;7.75;1.30;;;14.50;90.20;;;;;;4956305;29;20078;-66
2023/10/28 12:24:34;;;;;;;4.55;1.40;;;14.40;90.50;;;;;;4956235;29;20082;-66
2023/10/28 12:27:02;;;;;;;3.38;1.10;;;14.30;90.70;;;;;;4956222;29;20408;-66
2023/10/28 12:29:29;;;;;;;3.30;1.10;;;14.10;90.90;;;;;;4956035;29;20026;-66
2023/10/28 12:31:56;;;;;;;3.45;1.00;;;14.10;90.90;;;;;;4956638;28;20057;-66
2023/10/28 12:34:24;;;;;;;2.75;1.13;;;14.00;91.10;;;;;;4956222;29;20491;-66
2023/10/28 12:36:51;;;;;;;6.85;1.55;;;13.90;91.10;;;;;;4956021;28;20051;-65
2023/10/28 12:39:20;;;;;;;5.22;1.17;;;13.90;91.30;;;;;;4955953;29;20492;-66
2023/10/28 12:41:47;;;;;;;6.15;1.58;;;13.80;91.40;;;;;;4955880;29;20135;-66
2023/10/28 12:44:14;;;;;;;3.45;1.17;;;13.80;91.50;;;;;;4955778;29;20051;-66
2023/10/28 12:46:42;;;;;;;3.85;1.10;;;13.70;91.60;;;;;;4955866;29;20079;-66
2023/10/28 12:49:09;;;;;;;3.40;1.25;;;13.70;91.80;;;;;;4956286;28;20027;-67
2023/10/28 12:51:37;;;;;;;7.50;1.98;;;13.70;91.80;;;;;;4955646;29;20372;-66